Terminal Aerodrome Forecast
Issued by NWS Sioux Falls, SD

Home | Current Version | Previous Version | Text Only | Print | Product List | Glossary On
Versions: 1 2 3 4 5 6 7 8 9 10 11 12 13 14 15 16 17 18 19 20 21 22 23 24 25 26 27
631
FTUS43 KFSD 180527
TAFSUX
TAF
KSUX 180527Z 1806/1906 16004KT P6SM BKN250
     FM180700 17004KT P6SM -SHRA SCT060 OVC100
      TEMPO 1807/1808 30017G28KT 5SM -TSRA OVC070CB
     FM181000 17008KT P6SM -SHRA BKN090
     FM181200 20008KT P6SM SCT200
     FM181800 30008KT P6SM FEW250=

USA.gov is the U.S. government's official web portal to all federal, state and local government web resources and services.